Latest Weather Observations for Darwin Airport

IDD60901

Issued at 9:41 am CST Wednesday 2 September 2015 (issued every 10 minutes, with the page automatically refreshed every 10 minutes)

About weather observations | Map of Darwin area stations | Latest observations for Darwin area | Other Formats
Station Details ID: 014015 Name: DARWIN AIRPORT Lat: -12.42 Lon: 130.89 Height: 30.4 m
Data from the previous 72 hours. | See also: Recent months at Darwin Airport
Date/Time
CST
Tmp

°C
App
Tmp
°C
Dew
Point
°C
Rel
Hum
%
Delta-T

°C
Wind Press
QNH
hPa
Press
MSL
hPa
Rain
since
9 am
mm
Dir
 
Spd
km/h
Gust
km/h
Spd
kts
Gust
kts
02/09:30am 28.0 30.4 20.1 62 5.2 S 7 11 4 6 1016.8 - 0.0
02/09:00am 27.4 30.4 20.9 67 4.3 WSW 6 11 3 6 1016.7 1016.4 0.0
02/08:30am 26.2 30.3 22.3 79 2.6 S 4 9 2 5 1016.4 - 0.0
02/08:00am 25.2 28.7 22.2 83 2.0 E 7 9 4 5 1016.1 - 0.0
02/07:30am 23.0 26.1 21.5 91 1.0 ESE 7 7 4 4 1015.7 - 0.0
02/07:00am 21.4 24.1 20.2 93 0.8 SE 6 6 3 3 1015.3 - 0.0
02/06:30am 22.1 25.1 20.9 93 0.8 SE 6 7 3 4 1014.6 - 0.0
02/06:00am 22.2 25.0 20.8 92 0.9 SSE 7 7 4 4 1014.3 1014.0 0.0
02/05:30am 22.9 25.9 21.2 90 1.1 SE 7 9 4 5 1014.0 - 0.0
02/05:00am 22.4 25.1 20.7 90 1.1 SSE 7 9 4 5 1014.0 - 0.0
02/04:30am 23.6 26.3 21.3 87 1.5 S 9 11 5 6 1013.8 - 0.0
02/04:00am 23.7 26.4 21.4 87 1.5 SSW 9 11 5 6 1014.0 - 0.0
02/03:30am 22.9 26.4 21.1 89 1.2 WSW 4 7 2 4 1013.9 - 0.0
02/03:00am 22.8 27.1 21.1 90 1.1 CALM 0 0 0 0 1013.9 1013.6 0.0
02/02:30am 22.9 25.7 20.9 88 1.3 W 7 7 4 4 1014.0 - 0.0
02/02:00am 23.2 26.4 21.2 88 1.3 W 6 7 3 4 1014.1 - 0.0
02/01:30am 23.8 27.4 21.2 85 1.7 WNW 4 6 2 3 1014.2 - 0.0
02/01:00am 25.0 27.9 21.8 82 2.1 W 9 11 5 6 1014.3 - 0.0
02/12:30am 25.2 28.1 21.7 81 2.3 W 9 13 5 7 1014.5 - 0.0
02/12:00am 25.5 28.2 21.3 77 2.8 WSW 9 9 5 5 1014.7 1014.4 0.0
 
Date/Time
CST
Tmp

°C
App
Tmp
°C
Dew
Point
°C
Rel
Hum
%
Delta-T

°C
Wind Press
QNH
hPa
Press
MSL
hPa
Rain
since
9 am
mm
Dir
 
Spd
km/h
Gust
km/h
Spd
kts
Gust
kts
01/11:30pm 25.8 28.1 21.3 76 3.0 WSW 11 15 6 8 1014.4 - 0.0
01/11:00pm 25.8 27.7 21.3 76 3.0 WSW 13 17 7 9 1014.4 - 0.0
01/10:30pm 26.0 27.9 21.3 75 3.1 WSW 13 15 7 8 1014.2 - 0.0
01/10:00pm 26.1 27.7 21.4 75 3.1 WSW 15 22 8 12 1014.0 - 0.0
01/09:30pm 26.2 27.8 21.5 75 3.1 WSW 15 19 8 10 1014.0 - 0.0
01/09:00pm 26.3 27.9 21.5 75 3.2 WSW 15 19 8 10 1013.8 1013.5 0.0
01/08:30pm 26.5 27.3 21.4 73 3.4 WSW 19 24 10 13 1013.4 - 0.0
01/08:00pm 26.6 27.3 21.5 73 3.4 WSW 20 26 11 14 1013.0 - 0.0
01/07:30pm 26.8 27.0 21.4 72 3.6 W 22 30 12 16 1012.5 - 0.0
01/07:00pm 27.4 28.0 20.2 65 4.7 W 17 24 9 13 1012.0 - 0.0
01/06:30pm 28.1 27.8 19.1 58 5.8 WNW 19 24 10 13 1011.9 - 0.0
01/06:00pm 28.9 27.9 18.8 54 6.5 WNW 22 28 12 15 1011.8 1011.5 0.0
01/05:30pm 29.8 27.1 15.5 42 8.8 WNW 24 30 13 16 1011.6 - 0.0
01/05:00pm 29.0 26.2 17.3 49 7.4 WNW 28 32 15 17 1011.4 - 0.0
01/04:30pm 30.5 28.8 16.3 42 8.9 WNW 20 26 11 14 1011.2 - 0.0
01/04:00pm 31.0 29.6 16.5 41 9.1 NW 19 26 10 14 1011.5 - 0.0
01/03:30pm 31.7 29.3 14.3 34 10.6 NW 20 30 11 16 1011.7 - 0.0
01/03:00pm 31.5 29.3 14.5 35 10.4 NW 19 30 10 16 1012.1 1011.8 0.0
01/02:30pm 30.4 30.1 17.3 45 8.3 NNW 15 20 8 11 1012.6 - 0.0
01/02:00pm 30.3 29.3 18.9 50 7.4 WNW 22 28 12 15 1012.9 - 0.0
01/01:30pm 30.8 30.7 19.9 52 7.2 NW 20 26 11 14 1013.3 - 0.0
01/01:00pm 30.6 30.5 20.0 53 7.0 NW 20 30 11 16 1013.6 - 0.0
01/12:30pm 28.7 29.6 20.9 62 5.2 NW 17 26 9 14 1014.3 - 0.0
01/12:00pm 28.7 28.7 21.0 63 5.1 WNW 22 30 12 16 1014.6 1014.3 0.0
01/11:30am 29.5 30.3 20.6 58 5.9 NW 17 26 9 14 1015.0 - 0.0
01/11:00am 30.2 31.8 21.4 59 5.9 NW 15 20 8 11 1015.4 - 0.0
01/10:30am 29.3 29.8 20.0 57 6.1 WNW 17 22 9 12 1015.7 - 0.0
01/10:00am 29.2 30.9 20.9 61 5.5 WNW 13 17 7 9 1016.0 - 0.0
01/09:30am 28.7 31.1 20.9 62 5.2 NW 9 15 5 8 1016.0 - 0.0
01/09:00am 27.3 30.9 22.4 74 3.3 NW 7 11 4 6 1015.8 1015.5 0.0
01/08:30am 25.8 30.0 23.2 85 1.8 NNE 6 9 3 5 1015.6 - 0.0
01/08:00am 24.9 28.5 23.1 90 1.2 ENE 9 11 5 6 1015.1 - 0.0
01/07:30am 23.5 27.2 22.6 95 0.6 E 7 9 4 5 1014.7 - 0.0
01/07:00am 22.7 26.0 21.9 95 0.5 ENE 7 9 4 5 1014.4 - 0.0
01/06:30am 22.6 25.6 22.0 96 0.4 ENE 9 9 5 5 1014.2 - 0.0
01/06:00am 22.7 26.0 21.9 95 0.5 WSW 7 9 4 5 1013.8 1013.5 0.0
01/05:30am 22.8 26.3 22.2 96 0.4 WSW 7 9 4 5 1013.5 - 0.0
01/05:23am 22.7 26.2 22.1 96 0.4 WSW 7 9 4 5 1013.5 - 0.0
01/05:00am 22.7 26.9 21.8 95 0.6 WSW 2 6 1 3 1013.3 - 0.0
01/04:30am 23.3 27.0 22.3 94 0.7 WSW 6 7 3 4 1013.3 - 0.0
01/04:00am 23.3 26.9 22.3 94 0.7 WSW 7 7 4 4 1013.4 - 0.0
01/03:30am 23.6 27.3 22.3 92 0.9 WSW 6 7 3 4 1013.5 - 0.0
01/03:00am 23.7 28.2 22.2 91 1.0 WSW 2 6 1 3 1013.5 1013.2 0.0
01/02:30am 24.3 29.4 22.7 91 1.1 CALM 0 0 0 0 1013.6 - 0.0
01/02:00am 24.6 28.4 22.7 89 1.3 WSW 7 9 4 5 1013.9 - 0.0
01/01:30am 25.1 29.0 23.0 88 1.4 WSW 7 9 4 5 1014.0 - 0.0
01/01:00am 25.4 29.0 23.0 86 1.6 SW 9 11 5 6 1014.2 - 0.0
01/12:30am 25.5 29.3 22.8 85 1.8 W 7 9 4 5 1014.4 - 0.0
01/12:00am 25.7 29.2 22.9 84 1.9 WSW 9 11 5 6 1014.5 1014.2 0.0
 
Date/Time
CST
Tmp

°C
App
Tmp
°C
Dew
Point
°C
Rel
Hum
%
Delta-T

°C
Wind Press
QNH
hPa
Press
MSL
hPa
Rain
since
9 am
mm
Dir
 
Spd
km/h
Gust
km/h
Spd
kts
Gust
kts
31/11:30pm 25.9 29.4 22.8 83 2.1 WSW 9 11 5 6 1014.4 - 0.0
31/11:00pm 25.8 29.2 22.7 83 2.1 W 9 11 5 6 1014.3 - 0.0
31/10:30pm 25.9 28.8 22.5 81 2.3 W 11 15 6 8 1014.3 - 0.0
31/10:00pm 26.0 29.0 22.6 81 2.3 W 11 13 6 7 1014.1 - 0.0
31/09:30pm 26.1 28.8 22.9 82 2.2 WSW 13 19 7 10 1014.0 - 0.0
31/09:00pm 26.3 28.7 22.3 78 2.7 WSW 13 19 7 10 1013.8 1013.6 0.0
31/08:30pm 26.4 28.3 22.1 77 2.9 WSW 15 19 8 10 1013.6 - 0.0
31/08:00pm 26.5 27.6 22.0 76 3.0 W 19 24 10 13 1013.4 - 0.0
31/07:30pm 26.8 28.3 22.0 75 3.2 W 17 22 9 12 1013.0 - 0.0
31/07:00pm 27.1 27.9 21.4 71 3.8 W 19 26 10 14 1012.8 - 0.0
31/06:30pm 27.7 28.3 21.4 68 4.2 W 20 30 11 16 1012.5 - 0.0
31/06:00pm 28.9 28.8 18.7 54 6.6 W 17 22 9 12 1012.3 1012.1 0.0
31/05:30pm 29.4 28.4 18.9 53 6.8 WNW 22 28 12 15 1012.3 - 0.0
31/05:00pm 29.5 28.1 18.7 52 7.0 W 24 32 13 17 1012.1 - 0.0
31/04:30pm 29.7 29.2 20.7 58 6.0 WNW 24 32 13 17 1012.1 - 0.0
31/04:00pm 29.7 29.1 20.5 57 6.1 WNW 24 32 13 17 1012.2 - 0.0
31/03:30pm 30.4 30.1 20.3 54 6.7 NW 22 33 12 18 1012.4 - 0.0
31/03:00pm 29.9 29.3 20.6 57 6.2 NW 24 32 13 17 1013.0 1012.8 0.0
31/02:30pm 29.5 28.9 20.6 58 5.9 NW 24 32 13 17 1013.4 - 0.0
31/02:00pm 30.0 29.3 20.3 56 6.4 NW 24 30 13 16 1013.8 - 0.0
31/01:30pm 30.3 29.8 20.0 54 6.8 NW 22 30 12 16 1014.0 - 0.0
31/01:00pm 30.4 29.9 19.2 51 7.3 NW 20 26 11 14 1014.3 - 0.0
31/12:30pm 30.5 30.6 19.1 50 7.4 NW 17 24 9 13 1014.8 - 0.0
31/12:00pm 29.3 29.1 19.3 55 6.5 NW 19 28 10 15 1015.3 1015.1 0.0
31/11:30am 29.2 29.8 20.2 58 5.9 NW 17 26 9 14 1015.8 - 0.0
31/11:00am 29.7 31.0 20.8 58 5.9 WNW 15 22 8 12 1015.9 - 0.0
31/10:30am 29.1 30.7 20.8 61 5.5 NW 13 24 7 13 1016.1 - 0.0
31/10:00am 27.8 29.7 21.3 67 4.3 NNW 13 19 7 10 1016.3 - 0.0
31/09:30am 27.3 28.7 21.9 72 3.6 NNW 17 22 9 12 1016.2 - 0.0
31/09:00am 27.7 29.0 22.4 73 3.6 N 19 24 10 13 1015.8 1015.6 0.0
31/08:30am 26.3 30.3 23.1 82 2.2 N 7 11 4 6 1016.1 - 0.0
31/08:00am 25.3 29.0 23.2 88 1.4 NNE 9 11 5 6 1015.6 - 0.0
31/07:30am 23.9 27.6 22.6 92 0.9 ESE 7 9 4 5 1015.3 - 0.0
31/07:00am 23.2 26.3 22.1 93 0.7 ESE 9 11 5 6 1015.1 - 0.0
31/06:30am 23.2 26.3 22.1 93 0.7 E 9 11 5 6 1014.6 - 0.0
31/06:00am 23.0 24.6 22.1 95 0.6 NE 17 20 9 11 1014.0 1013.8 0.0
31/05:30am 22.7 25.2 21.8 95 0.6 NE 11 15 6 8 1014.1 - 0.0
31/05:00am 22.8 25.0 21.9 95 0.6 NE 13 15 7 8 1014.1 - 0.0
31/04:30am 22.8 25.4 22.0 95 0.5 ENE 11 13 6 7 1014.2 - 0.0
31/04:00am 23.1 25.8 22.2 95 0.6 ENE 11 15 6 8 1014.3 - 0.0
31/03:30am 22.7 26.2 21.9 95 0.5 E 6 9 3 5 1014.3 - 0.0
31/03:00am 22.7 27.2 21.6 93 0.7 CALM 0 0 0 0 1014.2 1014.0 0.0
31/02:30am 23.0 26.7 21.5 91 1.0 SE 4 6 2 3 1014.5 - 0.0
31/02:00am 23.2 26.6 21.7 91 1.0 S 6 7 3 4 1014.8 - 0.0
31/01:30am 23.4 26.8 21.7 90 1.1 S 6 7 3 4 1015.0 - 0.0
31/01:00am 24.2 27.7 22.1 88 1.4 S 7 7 4 4 1015.3 - 0.0
31/12:30am 24.3 27.7 22.0 87 1.5 SW 7 9 4 5 1015.6 - 0.0
31/12:00am 25.5 29.2 22.2 82 2.2 WSW 6 9 3 5 1015.8 1015.6 0.0
 
Date/Time
CST
Tmp

°C
App
Tmp
°C
Dew
Point
°C
Rel
Hum
%
Delta-T

°C
Wind Press
QNH
hPa
Press
MSL
hPa
Rain
since
9 am
mm
Dir
 
Spd
km/h
Gust
km/h
Spd
kts
Gust
kts
30/11:30pm 25.6 29.3 22.5 83 2.1 W 7 9 4 5 1015.8 - 0.0
30/11:00pm 25.9 29.0 22.8 83 2.1 WSW 11 15 6 8 1015.5 - 0.0
30/10:30pm 25.9 28.8 22.5 81 2.3 WSW 11 13 6 7 1015.2 - 0.0
30/10:00pm 26.0 28.4 22.9 83 2.1 S 15 19 8 10 1014.8 - 0.0
30/09:30pm 26.0 28.3 22.7 82 2.2 SSW 15 19 8 10 1014.6 - 0.0
30/09:00pm 26.2 28.4 22.6 80 2.4 SW 15 17 8 9 1014.3 1014.1 0.0
30/08:30pm 26.4 28.1 22.4 78 2.7 SW 17 20 9 11 1014.0 - 0.0
30/08:00pm 26.6 28.3 21.7 74 3.3 WSW 15 19 8 10 1013.8 - 0.0
30/07:30pm 27.1 28.0 20.9 69 4.1 WSW 17 22 9 12 1013.5 - 0.0
30/07:00pm 27.2 28.0 19.8 64 4.8 W 15 17 8 9 1013.2 - 0.0
30/06:30pm 27.6 28.5 20.8 66 4.5 W 17 22 9 12 1012.9 - 0.0
30/06:00pm 28.6 28.8 20.1 60 5.6 W 19 24 10 13 1012.8 1012.6 0.0
30/05:30pm 30.1 30.0 18.7 50 7.4 NNW 17 22 9 12 1012.6 - 0.0
30/05:00pm 30.1 29.7 19.0 51 7.2 NNW 19 24 10 13 1012.3 - 0.0
30/04:30pm 30.2 29.7 20.0 54 6.7 N 22 30 12 16 1012.3 - 0.0
30/04:00pm 30.1 29.8 20.4 56 6.4 NNW 22 30 12 16 1012.2 - 0.0
30/03:30pm 30.2 30.3 21.1 58 6.1 NNW 22 28 12 15 1012.3 - 0.0
30/03:00pm 29.9 30.0 21.2 59 5.8 N 22 28 12 15 1012.7 1012.5 0.0
30/02:30pm 30.1 29.8 21.1 58 6.0 N 24 30 13 16 1013.2 - 0.0
30/02:00pm 29.9 30.0 21.2 59 5.8 NNW 22 32 12 17 1013.6 - 0.0
30/01:30pm 29.3 29.8 21.9 64 5.0 NNW 22 30 12 16 1014.0 - 0.0
30/01:00pm 29.4 29.6 21.3 61 5.4 NW 22 30 12 16 1014.5 - 0.0
30/12:30pm 29.6 29.9 20.7 58 5.9 NW 20 33 11 18 1014.9 - 0.0
30/12:00pm 30.4 31.6 20.6 55 6.5 WNW 15 19 8 10 1015.5 1015.3 0.0
30/11:30am 29.2 30.0 20.6 59 5.7 W 17 22 9 12 1016.0 - 0.0
30/11:00am 29.5 31.5 19.2 54 6.7 ESE 7 13 4 7 1016.5 - 0.0
30/10:30am 29.2 31.1 19.0 54 6.6 SE 7 15 4 8 1016.7 - 0.0
30/10:00am 28.6 30.8 19.5 58 5.9 N 7 13 4 7 1016.9 - 0.0

Latest Capital City Observations: Canberra | Sydney | Melbourne | Brisbane | Adelaide | Perth | Hobart | Darwin

Other Formats:

Comma delimited format used in spreadsheet applications
http://www.bom.gov.au/fwo/IDD60901/IDD60901.94120.axf

JavaScript Object Notation format (JSON) in row-major order
http://www.bom.gov.au/fwo/IDD60901/IDD60901.94120.json